CLEVELAND ARTCC (ZOB) FACILITY RUNWAY SELECTOR
METARS UPDATED AT 1209Z

Page auto refreshed every 5 minutes
FACILITYWINDVISIBILITY
CEILING
RUNWAY FLOWAPPROACHMETAR
KAGC350@039SM
OVC006
Calm Wind Flow
DEP: 28
ARR: 28
Instrument ApproachKAGC 101153Z 35003KT 9SM OVC006 M07/M08 A3016 RMK AO2 SLP235 I6000 T10671078 11050 21083 53010
KBKL130@059SM
OVC023
6 Flow
DEP: 6L, 6R (GA)
ARR: 6L, 6R (GA)
Instrument ApproachKBKL 101153Z 13005KT 9SM OVC023 M02/M05 A3021 RMK AO2 SLP238 T10171050 10006 21017 53008
KBUF190@059SM
OVC033
23 Flow
DEP: 23
ARR: 23
Visual ApproachKBUF 101154Z 19005KT 9SM SCT021 OVC033 M02/M05 A3017 RMK AO2 SLP228 4/004 T10221050 11017 21028 51005
KCAK020@035SM
OVC016
Calm Wind Flow
DEP: 19
ARR: 23
Instrument ApproachKCAK 101151Z 02003KT 5SM HZ OVC016 M03/M06 A3019 RMK AO2 SLP238 T10331061 11033 21072 53010 $
KCGFCalm10SM
OVC019
Calm Wind Flow
DEP: 6
ARR: 6
Instrument ApproachKCGF 100345Z 00000KT 10SM OVC019 M04/M05 A3022
KCLE150@038SM
OVC021
Calm Wind Flow
DEP: 6R
ARR: 6L
Instrument ApproachKCLE 101151Z 15003KT 8SM OVC021 M03/M06 A3023 RMK AO2 SLP247 I6000 T10331056 11033 21067 53007
KDTW300@063SM
OVC011
Calm Wind Flow
DEP: 21R, 22L
ARR: 21L, 22R
Instrument ApproachKDTW 101153Z 30006KT 3SM HZ OVC011 M03/M07 A3025 RMK AO2 TWR VIS 4 SLP252 I6000 T10331072 11033 21061 53004
KERI150@049SM
OVC025
Calm Wind Flow
DEP: 6
ARR: 6
Instrument ApproachKERI 101151Z 15004KT 9SM OVC025 M01/M06 A3020 RMK AO2 SLP235 T10111056 11011 21017 53005
KFNT210@038SM
OVC011
Calm Wind Flow
DEP: 18
ARR: 18
Instrument ApproachKFNT 101153Z 21003KT 8SM OVC011 M05/M07 A3024 RMK AO2 SLP255 T10501072 11039 21050 53001 $
KIAG220@036SM
OVC032
Calm Wind Flow
DEP: 28R, 28L (GA)
ARR: 28R, 28L (GA)
Visual ApproachKIAG 101153Z 22003KT 6SM BR OVC032 M03/M05 A3017 RMK AO2 SLP235 T10281050 11022 21033 53003 $
KJST350@0410SM
----
Calm Wind Flow
DEP: 15
ARR: 15
Visual ApproachKJST 101154Z 35004KT 10SM CLR M09/M12 A3006 RMK AO2 SLP216 T10941117 11056 21100 53009
KLANCalm8SM
OVC010
Calm Wind Flow
DEP: 18
ARR: 18
Instrument ApproachKLAN 101153Z 00000KT 8SM OVC010 M04/M06 A3025 RMK AO2 SLP255 T10441061 11044 21050 54000
KPIT010@049SM
OVC008
Calm Wind Flow
DEP: 28R, 28C
ARR: 28R, 28L, 32 (GA)
Instrument ApproachKPIT 101151Z 01004KT 9SM OVC008 M06/M07 A3017 RMK AO2 SLP241 T10561072 11056 21083 53007
KROC270@068SM
OVC034
25/28 Flow
DEP: 25 (GA), 28
ARR: 25 (GA), 28
Visual ApproachKROC 101154Z 27006KT 8SM -SN OVC034 M01/M04 A3017 RMK AO2 SNB33 SLP228 4/002 P0000 60000 T10111044 11011 21017 53004
KTOL350@055SM
OVC006
7/34 Flow
DEP: 7, 34 (GA)
ARR: 7, 34 (GA)
Instrument ApproachKTOL 101152Z 35005KT 5SM BR OVC006 M04/M06 A3025 RMK AO2 SLP255 T10391061 11039 21078 53005 $
KYNG010@059SM O
OVC013
5 Flow
DEP: 5
ARR: 5
Instrument ApproachKYNG 101151Z 01005KT 9SM OVC013 M03/M06 A3018 RMK AO2 SLP235 4/001 T10331061 11028 21044 53010 $
NOTE: Runway selection based on current VATSIM metar and ZOB SOPs.
Ceiling = Lowest reported ceiling.
GA = General Aviation aircraft only.
METAR Decode Key